Terminal Aerodrome Forecast
Issued by NWS

Home | Current Version | Previous Version | Text Only | Print | Product List | Glossary On
Versions: 1 2 3 4 5 6 7 8 9 10 11 12 13 14
000
FTUS45 KSLC 290157 AAB
TAFOGD
TAF AMD
KOGD 290157Z 2902/2924 VRB06KT P6SM VCTS SCT070 BKN090CB
      TEMPO 2902/2903 VRB20G30KT -TSRA BKN080CB
     FM290300 16007KT P6SM VCSH SCT080 BKN110
     FM290800 17009KT P6SM SCT080 BKN150
     FM292000 22009KT P6SM VCSH SCT060 BKN110=

USA.gov is the U.S. government's official web portal to all federal, state and local government web resources and services.